Time;durP1;ratioP1;P1;durP2;ratioP2;P2;SDS_P1;SDS_P2;PMS_P1;PMS_P2;Temp;Humidity;BMP_temperature;BMP_pressure;BME280_temperature;BME280_humidity;BME280_pressure;Samples;Min_cycle;Max_cycle;Signal;HPM_P1;HPM_P2
2022/08/27 00:02:08;;;;;;;14.10;8.00;;;;;;;-148.88;93.94;74912.03;5115727;28;20527;-77
2022/08/27 00:04:35;;;;;;;14.13;7.88;;;;;;;-148.88;94.12;74914.06;5115934;28;20094;-77
2022/08/27 00:07:01;;;;;;;14.25;7.68;;;;;;;-148.88;93.92;74916.09;5116731;28;20031;-77
2022/08/27 00:09:27;;;;;;;16.13;8.02;;;;;;;-148.88;94.09;74916.09;5115852;28;20020;-75
2022/08/27 00:11:53;;;;;;;11.63;7.60;;;;;;;-148.88;94.08;74918.13;5114293;28;20027;-75
2022/08/27 00:14:19;;;;;;;15.13;7.85;;;;;;;-148.88;94.50;74920.16;5115356;28;20019;-75
2022/08/27 00:16:44;;;;;;;16.48;8.20;;;;;;;-148.88;94.24;74920.16;5114179;28;20073;-75
2022/08/27 00:19:10;;;;;;;17.60;7.75;;;;;;;-148.88;94.13;74912.03;5115599;28;20031;-76
2022/08/27 00:21:35;;;;;;;18.13;8.00;;;;;;;-148.88;94.33;74916.09;5115495;28;20034;-75
2022/08/27 00:24:01;;;;;;;21.33;8.45;;;;;;;-148.88;94.48;74907.97;5115501;28;20023;-75
2022/08/27 00:26:27;;;;;;;15.80;8.25;;;;;;;-148.88;94.55;74916.09;5115276;28;20023;-77
2022/08/27 00:28:52;;;;;;;14.43;8.57;;;;;;;-148.88;94.67;74916.09;5115395;28;20023;-76
2022/08/27 00:31:17;;;;;;;18.35;8.95;;;;;;;-148.88;95.21;74930.31;5115113;28;20035;-76
2022/08/27 00:33:43;;;;;;;15.70;8.13;;;;;;;-148.88;95.35;74930.31;5115165;28;20023;-75
2022/08/27 00:36:09;;;;;;;15.63;9.02;;;;;;;-148.88;95.24;74932.34;5115313;28;20023;-76
2022/08/27 00:38:37;;;;;;;17.55;9.15;;;;;;;-148.88;95.54;74942.47;5115185;28;20047;-75
2022/08/27 00:41:04;;;;;;;15.38;9.25;;;;;;;-148.88;95.75;74940.47;5114347;28;20043;-77
2022/08/27 00:43:42;;;;;;;16.95;8.52;;;;;;;-148.88;95.64;74942.47;5115977;28;20027;-76
2022/08/27 00:46:17;;;;;;;20.75;8.18;;;;;;;-148.88;95.68;74940.47;5116256;28;20106;-75
2022/08/27 00:48:43;;;;;;;15.77;8.73;;;;;;;-148.88;95.69;74952.63;5116128;28;20055;-75
2022/08/27 00:51:09;;;;;;;19.98;8.70;;;;;;;-148.88;95.28;74942.47;5115307;28;20023;-75
2022/08/27 00:53:34;;;;;;;18.77;8.65;;;;;;;-148.88;95.34;74954.66;5114566;28;20022;-75
2022/08/27 00:56:08;;;;;;;16.98;8.45;;;;;;;-148.88;95.11;74956.69;5113351;28;20023;-76
2022/08/27 00:58:39;;;;;;;15.60;8.48;;;;;;;-148.88;95.30;74954.66;5114401;28;20047;-76
2022/08/27 01:01:08;;;;;;;16.58;7.43;;;;;;;-148.88;95.01;74962.78;5114407;28;20181;-77
2022/08/27 01:03:34;;;;;;;20.63;8.38;;;;;;;-148.88;94.95;74960.75;5114062;28;20023;-77
2022/08/27 01:06:01;;;;;;;15.65;7.47;;;;;;;-148.88;94.84;74960.75;5114531;28;20023;-75
2022/08/27 01:08:31;;;;;;;15.93;7.20;;;;;;;-148.88;94.75;74960.75;5114391;28;20023;-75
2022/08/27 01:10:58;;;;;;;17.20;7.60;;;;;;;-148.88;94.24;74964.81;5114198;28;20016;-75
2022/08/27 01:13:26;;;;;;;15.27;7.30;;;;;;;-148.88;94.16;74964.81;5113762;28;20016;-75
2022/08/27 01:15:57;;;;;;;16.77;7.78;;;;;;;-148.88;94.25;74966.84;5114310;28;20473;-75
2022/08/27 01:18:27;;;;;;;14.90;7.68;;;;;;;-148.88;94.24;74972.94;5114507;28;20045;-76
2022/08/27 01:21:25;;;;;;;15.40;6.93;;;;;;;-148.88;94.31;74972.94;5114251;28;20369;-76
2022/08/27 01:24:18;;;;;;;21.02;7.20;;;;;;;-148.88;94.52;74972.94;5114845;28;20103;-75
2022/08/27 01:26:44;;;;;;;20.30;7.00;;;;;;;-148.88;93.67;74977.00;5114065;28;20024;-77
2022/08/27 01:29:09;;;;;;;16.25;6.85;;;;;;;-148.88;93.86;74989.19;5113937;28;20027;-75
2022/08/27 01:31:34;;;;;;;16.42;7.05;;;;;;;-148.88;93.77;74983.09;5113893;28;20023;-75
2022/08/27 01:34:03;;;;;;;19.42;7.93;;;;;;;-148.88;93.83;74987.16;5114265;28;20019;-75
2022/08/27 01:36:29;;;;;;;15.23;7.20;;;;;;;-148.88;93.78;74993.25;5113813;28;20027;-75
2022/08/27 01:38:54;;;;;;;17.58;7.60;;;;;;;-148.88;93.75;74999.34;5113800;28;20475;-75
2022/08/27 01:41:20;;;;;;;11.05;6.60;;;;;;;-148.88;93.97;75001.38;5113748;28;20028;-75
2022/08/27 01:43:46;;;;;;;12.63;6.75;;;;;;;-148.88;94.19;74997.31;5113597;28;20022;-75
2022/08/27 01:46:11;;;;;;;16.98;7.68;;;;;;;-148.88;93.92;75005.44;5112419;28;20068;-76
2022/08/27 01:48:37;;;;;;;14.35;6.70;;;;;;;-148.88;94.11;75009.50;5114007;28;20452;-77
2022/08/27 01:51:03;;;;;;;13.88;6.63;;;;;;;-148.88;93.90;75009.50;5113757;28;20015;-75
2022/08/27 01:53:29;;;;;;;15.20;7.28;;;;;;;-148.88;94.22;75005.44;5113514;28;20020;-76
2022/08/27 01:55:55;;;;;;;14.32;7.00;;;;;;;-148.88;94.26;75013.56;5112171;28;20028;-76
2022/08/27 01:58:27;;;;;;;15.77;7.97;;;;;;;-148.88;94.25;75009.50;5114027;28;20084;-75
2022/08/27 02:00:58;;;;;;;13.93;7.03;;;;;;;-148.88;94.36;75013.56;5115210;28;20031;-77
2022/08/27 02:03:23;;;;;;;13.68;6.70;;;;;;;-148.88;94.33;75005.44;5112899;28;20110;-78
2022/08/27 02:05:50;;;;;;;12.45;6.20;;;;;;;-148.88;94.23;75013.56;5113785;28;20107;-77
2022/08/27 02:08:16;;;;;;;17.33;6.55;;;;;;;-148.88;94.36;75011.53;5113387;28;20098;-77
2022/08/27 02:10:43;;;;;;;14.30;6.00;;;;;;;-148.88;94.38;75009.50;5113609;28;20034;-77
2022/08/27 02:13:08;;;;;;;14.43;6.70;;;;;;;-148.88;94.52;75009.50;5113437;28;20028;-77
2022/08/27 02:15:35;;;;;;;14.73;6.13;;;;;;;-148.88;93.99;75001.38;5113326;28;20019;-77
2022/08/27 02:18:01;;;;;;;14.68;6.32;;;;;;;-148.88;94.16;75003.41;5113594;28;20088;-77
2022/08/27 02:20:27;;;;;;;14.55;5.32;;;;;;;-148.88;94.11;75013.56;5113385;28;20032;-75
2022/08/27 02:22:53;;;;;;;13.88;5.80;;;;;;;-148.88;94.08;75021.69;5111926;28;20064;-75
2022/08/27 02:25:19;;;;;;;11.98;5.68;;;;;;;-148.88;94.16;75027.78;5098709;22;20067;-76
2022/08/27 02:27:45;;;;;;;12.98;5.22;;;;;;;-148.88;93.92;75027.78;5076750;28;20028;-76
2022/08/27 02:30:13;;;;;;;9.85;4.55;;;;;;;-148.88;93.70;75023.72;5075462;28;20029;-77
2022/08/27 02:32:39;;;;;;;14.25;4.85;;;;;;;-148.88;93.97;75025.75;5076616;28;20029;-77
2022/08/27 02:35:05;;;;;;;10.65;4.63;;;;;;;-148.88;93.56;75033.88;5076722;28;20046;-74
2022/08/27 02:37:31;;;;;;;10.45;4.57;;;;;;;-148.88;93.70;75037.94;5075175;28;20385;-75
2022/08/27 02:39:57;;;;;;;11.57;4.47;;;;;;;-148.88;93.51;75033.88;5100437;22;20044;-75
2022/08/27 02:42:23;;;;;;;12.18;4.50;;;;;;;-148.88;93.92;75037.94;5094602;28;20024;-75
2022/08/27 02:44:48;;;;;;;9.95;4.10;;;;;;;-148.88;93.91;75042.00;5096031;28;20032;-75
2022/08/27 02:47:15;;;;;;;12.30;5.07;;;;;;;-148.88;93.44;75042.00;5095860;28;20023;-75
2022/08/27 02:49:41;;;;;;;9.75;4.05;;;;;;;-148.88;93.64;75046.06;5095814;28;20024;-75
2022/08/27 02:52:07;;;;;;;13.52;4.00;;;;;;;-148.88;93.82;75046.06;5094530;28;20100;-75
2022/08/27 02:54:32;;;;;;;13.63;4.40;;;;;;;-148.88;93.33;75058.25;5095813;28;20016;-75
2022/08/27 02:56:57;;;;;;;8.73;3.58;;;;;;;-148.88;93.25;75050.13;5095731;28;20121;-75
2022/08/27 02:59:23;;;;;;;13.20;3.90;;;;;;;-148.88;93.01;75052.16;5095751;28;20024;-75
2022/08/27 03:01:48;;;;;;;14.07;3.53;;;;;;;-148.88;92.71;75054.19;5094643;28;20107;-75
2022/08/27 03:04:16;;;;;;;8.93;3.22;;;;;;;-148.88;92.46;75054.19;5095678;28;20405;-75
2022/08/27 03:06:41;;;;;;;8.55;3.22;;;;;;;-148.88;92.69;75062.31;5094364;28;20032;-75
2022/08/27 03:09:09;;;;;;;9.52;3.22;;;;;;;-148.88;92.95;75056.22;5095651;28;20023;-75
2022/08/27 03:11:35;;;;;;;7.47;3.03;;;;;;;-148.88;92.50;75060.28;5094322;28;20035;-75
2022/08/27 03:14:00;;;;;;;9.75;3.05;;;;;;;-148.88;92.53;75066.38;5095536;28;20024;-75
2022/08/27 03:16:26;;;;;;;12.30;2.70;;;;;;;-148.88;92.04;75062.31;5095558;28;20030;-75
2022/08/27 03:18:52;;;;;;;7.55;2.65;;;;;;;-148.88;91.31;75066.38;5095802;28;20107;-75
2022/08/27 03:21:23;;;;;;;8.55;2.70;;;;;;;-148.88;90.96;75066.38;5095485;28;20086;-75
2022/08/27 03:23:50;;;;;;;5.90;2.22;;;;;;;-148.88;90.46;75074.50;5094091;28;20547;-75
2022/08/27 03:26:17;;;;;;;7.90;2.33;;;;;;;-148.88;90.35;75070.44;5095280;28;20427;-75
2022/08/27 03:28:43;;;;;;;6.07;2.08;;;;;;;-148.88;90.40;75070.44;5095116;28;20055;-75
2022/08/27 03:31:25;;;;;;;9.20;2.30;;;;;;;-148.88;90.42;75074.50;5095315;28;20020;-75
2022/08/27 03:33:52;;;;;;;9.18;2.63;;;;;;;-148.88;89.60;75060.28;5095190;28;20053;-75
2022/08/27 03:36:18;;;;;;;8.68;2.25;;;;;;;-148.88;89.27;75072.47;5094552;28;20042;-74
2022/08/27 03:38:43;;;;;;;9.52;2.40;;;;;;;-148.88;89.72;75072.47;5094937;28;20028;-74
2022/08/27 03:41:08;;;;;;;6.40;1.90;;;;;;;-148.88;89.82;75066.38;5095221;28;20463;-76
2022/08/27 03:43:34;;;;;;;7.32;1.90;;;;;;;-148.88;89.53;75072.47;5093599;28;20017;-75
2022/08/27 03:46:00;;;;;;;7.63;2.00;;;;;;;-148.88;89.22;75072.47;5094915;28;20020;-75
2022/08/27 03:48:25;;;;;;;8.73;2.10;;;;;;;-148.88;89.33;75074.50;5094741;28;20032;-75
2022/08/27 03:50:50;;;;;;;7.78;1.88;;;;;;;-148.88;89.19;75074.50;5094672;28;20500;-75
2022/08/27 03:53:19;;;;;;;7.43;2.30;;;;;;;-148.88;89.04;75082.63;5094670;28;20053;-75
2022/08/27 03:55:45;;;;;;;9.15;2.17;;;;;;;-148.88;89.11;75090.72;5094686;28;20079;-75
2022/08/27 03:58:11;;;;;;;7.30;1.83;;;;;;;-148.88;89.07;75086.69;5093161;28;20020;-75
2022/08/27 04:00:38;;;;;;;6.85;2.10;;;;;;;-148.88;88.97;75090.72;5094612;28;20039;-75
2022/08/27 04:03:05;;;;;;;5.93;1.75;;;;;;;-148.88;89.09;75088.72;5094578;28;20024;-75
2022/08/27 04:05:31;;;;;;;7.15;1.70;;;;;;;-148.88;89.33;75088.72;5094593;28;20028;-75
2022/08/27 04:07:57;;;;;;;8.45;2.03;;;;;;;-148.88;88.80;75090.72;5094311;28;20024;-74
2022/08/27 04:10:22;;;;;;;8.60;2.15;;;;;;;-148.88;88.97;75086.69;5094324;28;20130;-76
2022/08/27 04:12:48;;;;;;;8.98;1.90;;;;;;;-148.88;88.75;75092.78;5094591;28;20044;-75
2022/08/27 04:15:13;;;;;;;9.95;2.20;;;;;;;-148.88;89.19;75092.78;5094330;28;20475;-75
2022/08/27 04:17:39;;;;;;;5.53;1.75;;;;;;;-148.88;88.86;75092.78;5094393;28;20032;-74
2022/08/27 04:20:06;;;;;;;8.43;2.35;;;;;;;-148.88;88.75;75092.78;5094133;28;20359;-74
2022/08/27 04:22:32;;;;;;;6.30;1.88;;;;;;;-148.88;89.18;75094.81;5093104;28;20164;-74
2022/08/27 04:24:58;;;;;;;10.40;2.20;;;;;;;-148.88;89.56;75088.72;5093989;28;20021;-74
2022/08/27 04:27:25;;;;;;;7.93;2.10;;;;;;;-148.88;89.14;75094.81;5092482;28;20039;-74
2022/08/27 04:29:53;;;;;;;8.35;2.00;;;;;;;-148.88;89.04;75102.91;5092660;28;20493;-74
2022/08/27 04:32:19;;;;;;;4.63;1.80;;;;;;;-148.88;89.02;75094.81;5092492;28;20031;-74
2022/08/27 04:34:44;;;;;;;6.55;1.70;;;;;;;-148.88;89.44;75098.84;5093700;28;20016;-74
2022/08/27 04:37:09;;;;;;;14.02;2.72;;;;;;;-148.88;89.23;75102.91;5093725;28;20024;-74
2022/08/27 04:39:35;;;;;;;10.40;2.00;;;;;;;-148.88;89.12;75098.84;5093569;28;20024;-74
2022/08/27 04:42:00;;;;;;;8.30;2.10;;;;;;;-148.88;88.92;75106.97;5092438;28;20020;-74
2022/08/27 04:44:28;;;;;;;9.48;2.17;;;;;;;-148.88;88.96;75104.94;5092252;28;20123;-74
2022/08/27 04:47:00;;;;;;;10.15;1.95;;;;;;;-148.88;89.33;75104.94;5092757;28;20024;-74
2022/08/27 04:49:26;;;;;;;6.82;1.95;;;;;;;-148.88;89.32;75109.00;5092209;28;20106;-75
2022/08/27 04:51:53;;;;;;;7.97;1.77;;;;;;;-148.88;89.12;75098.84;5093541;28;20099;-75
2022/08/27 04:54:19;;;;;;;9.43;2.00;;;;;;;-148.88;88.50;75106.97;5092303;28;20190;-74
2022/08/27 04:56:44;;;;;;;5.22;1.58;;;;;;;-148.88;87.70;75100.88;5092332;28;20035;-75
2022/08/27 04:59:10;;;;;;;6.80;2.08;;;;;;;-148.88;88.19;75106.97;5093405;28;20020;-75
2022/08/27 05:01:38;;;;;;;8.68;2.42;;;;;;;-148.88;88.46;75106.97;5093491;28;20024;-75
2022/08/27 05:04:03;;;;;;;8.75;2.20;;;;;;;-148.88;88.26;75100.88;5092049;28;20051;-77
2022/08/27 05:06:28;;;;;;;6.75;1.65;;;;;;;-148.88;88.02;75088.72;5091911;28;20442;-77
2022/08/27 05:08:54;;;;;;;7.57;2.00;;;;;;;-148.88;87.37;75080.59;5093117;28;20024;-77
2022/08/27 05:11:22;;;;;;;6.05;1.63;;;;;;;-148.88;86.25;75074.50;5093456;28;20119;-77
2022/08/27 05:13:47;;;;;;;6.25;1.67;;;;;;;-148.88;86.40;75076.53;5093413;28;20012;-77
2022/08/27 05:16:19;;;;;;;6.82;1.67;;;;;;;-148.88;85.98;75072.47;5093084;28;20042;-77
2022/08/27 05:18:45;;;;;;;4.68;2.20;;;;;;;-148.88;86.08;75090.72;5093404;28;20020;-77
2022/08/27 05:21:20;;;;;;;5.30;1.70;;;;;;;-148.88;86.03;75104.94;5096114;28;20482;-78
2022/08/27 05:23:46;;;;;;;7.82;2.10;;;;;;;-148.88;85.74;75090.72;5093847;28;20474;-76
2022/08/27 05:26:12;;;;;;;6.78;1.80;;;;;;;-148.88;84.96;75090.72;5093042;28;20047;-76
2022/08/27 05:28:37;;;;;;;6.95;1.70;;;;;;;-148.88;85.09;75098.84;5091638;28;20108;-76
2022/08/27 05:31:05;;;;;;;4.22;1.30;;;;;;;-148.88;84.79;75104.94;5092986;28;20032;-76
2022/08/27 05:33:32;;;;;;;7.63;1.90;;;;;;;-148.88;84.51;75106.97;5093155;28;20040;-76
2022/08/27 05:35:58;;;;;;;8.50;2.22;;;;;;;-148.88;84.03;75102.91;5092855;28;20027;-75
2022/08/27 05:38:25;;;;;;;6.15;1.63;;;;;;;-148.88;83.80;75102.91;5092413;28;20046;-76
2022/08/27 05:41:05;;;;;;;6.90;1.83;;;;;;;-148.88;83.84;75098.84;5091346;28;20379;-76
2022/08/27 05:43:31;;;;;;;6.22;1.95;;;;;;;-148.88;84.15;75113.06;5092624;28;20455;-77
2022/08/27 05:45:56;;;;;;;4.22;1.40;;;;;;;-148.88;84.46;75111.03;5091318;28;20065;-76
2022/08/27 05:48:21;;;;;;;10.23;1.85;;;;;;;-148.88;83.67;75117.13;5091079;28;20389;-76
2022/08/27 05:50:47;;;;;;;6.55;1.73;;;;;;;-148.88;83.70;75115.09;5092571;28;20016;-76
2022/08/27 05:53:12;;;;;;;6.20;1.70;;;;;;;-148.88;83.66;75106.97;5092686;28;20028;-76
2022/08/27 05:55:40;;;;;;;6.88;1.73;;;;;;;-148.88;83.49;75109.00;5092894;28;20528;-76
2022/08/27 05:58:07;;;;;;;6.32;1.60;;;;;;;-148.88;82.86;75096.81;5092881;28;20023;-76
2022/08/27 06:03:16;;;;;;;6.85;1.75;;;;;;;-148.88;83.04;75098.84;5093246;28;20085;-76
2022/08/27 06:05:42;;;;;;;6.57;1.60;;;;;;;-148.88;83.07;75100.88;5093090;28;20036;-76
2022/08/27 06:08:07;;;;;;;5.65;1.33;;;;;;;-148.88;82.83;75109.00;5093122;28;20073;-76
2022/08/27 06:10:34;;;;;;;8.10;2.00;;;;;;;-148.88;82.66;75094.81;5093073;28;20530;-76
2022/08/27 06:12:59;;;;;;;8.07;1.90;;;;;;;-148.88;82.39;75084.66;5092900;28;20051;-76
2022/08/27 06:15:24;;;;;;;7.65;1.63;;;;;;;-148.88;82.29;75094.81;5091460;28;20059;-76
2022/08/27 06:17:50;;;;;;;4.80;1.70;;;;;;;-148.88;82.72;75100.88;5092669;28;20028;-76
2022/08/27 06:20:15;;;;;;;7.50;1.50;;;;;;;-148.88;82.64;75111.03;5093254;28;20028;-77
2022/08/27 06:22:40;;;;;;;7.43;1.77;;;;;;;-148.88;82.59;75106.97;5092713;28;20016;-77
2022/08/27 06:25:06;;;;;;;4.45;1.52;;;;;;;-148.88;82.83;75098.84;5091327;28;20500;-76
2022/08/27 06:27:32;;;;;;;7.85;1.83;;;;;;;-148.88;82.27;75098.84;5092475;28;20020;-76
2022/08/27 06:29:57;;;;;;;4.30;1.80;;;;;;;-148.88;82.53;75094.81;5092738;28;20126;-76
2022/08/27 06:32:23;;;;;;;4.50;1.88;;;;;;;-148.88;82.69;75098.84;5092583;28;20031;-76
2022/08/27 06:34:48;;;;;;;8.15;1.77;;;;;;;-148.88;82.71;75092.78;5092625;28;20023;-76
2022/08/27 06:37:14;;;;;;;7.13;1.75;;;;;;;-148.88;83.49;75102.91;5092756;28;20032;-76
2022/08/27 06:39:39;;;;;;;7.82;1.95;;;;;;;-148.88;83.37;75098.84;5092442;28;20024;-76
2022/08/27 06:42:05;;;;;;;6.82;2.08;;;;;;;-148.88;83.48;75102.91;5091345;28;20440;-76
2022/08/27 06:44:31;;;;;;;6.35;1.92;;;;;;;-148.88;83.24;75109.00;5092430;28;20059;-76
2022/08/27 06:46:58;;;;;;;5.32;1.88;;;;;;;-148.88;83.37;75111.03;5091675;28;20024;-76
2022/08/27 06:49:26;;;;;;;5.97;1.83;;;;;;;-148.88;83.40;75102.91;5091807;28;20016;-76
2022/08/27 06:51:51;;;;;;;5.03;1.40;;;;;;;-148.88;82.74;75104.94;5091295;28;20063;-76
2022/08/27 06:54:18;;;;;;;9.35;1.80;;;;;;;-148.88;82.47;75094.81;5093040;28;20101;-76
2022/08/27 06:56:44;;;;;;;9.25;2.20;;;;;;;-148.88;82.89;75090.72;5091070;28;20028;-76
2022/08/27 06:59:13;;;;;;;6.90;1.88;;;;;;;-148.88;82.62;75098.84;5091012;28;20020;-77
2022/08/27 07:01:41;;;;;;;7.00;2.25;;;;;;;-148.88;82.26;75084.66;5091555;28;20024;-76
2022/08/27 07:04:10;;;;;;;9.68;1.80;;;;;;;-148.88;82.61;75106.97;5092213;28;20111;-76
2022/08/27 07:06:37;;;;;;;7.55;1.60;;;;;;;-148.88;82.82;75102.91;5091065;28;20024;-77
2022/08/27 07:09:04;;;;;;;8.10;1.77;;;;;;;-148.88;82.29;75090.72;5092169;28;20401;-76
2022/08/27 07:11:33;;;;;;;8.65;2.08;;;;;;;-148.88;82.66;75098.84;5094635;28;20039;-76
2022/08/27 07:13:58;;;;;;;7.13;2.08;;;;;;;-148.88;82.74;75102.91;5095951;28;20505;-76
2022/08/27 07:16:25;;;;;;;7.10;1.95;;;;;;;-148.88;83.17;75111.03;5094607;28;20048;-76
2022/08/27 07:18:53;;;;;;;6.18;1.67;;;;;;;-148.88;83.22;75100.88;5094453;28;20160;-76
2022/08/27 07:21:19;;;;;;;6.38;2.20;;;;;;;-148.88;83.25;75102.91;5095892;28;20089;-76
2022/08/27 07:23:45;;;;;;;6.60;2.15;;;;;;;-148.88;83.75;75106.97;5095744;28;20028;-76
2022/08/27 07:26:12;;;;;;;5.20;1.42;;;;;;;-148.88;83.40;75100.88;5095863;28;20308;-76
2022/08/27 07:28:41;;;;;;;4.82;1.75;;;;;;;-148.88;82.37;75088.72;5095903;28;20058;-76
2022/08/27 07:31:09;;;;;;;8.13;1.60;;;;;;;-148.88;82.67;75092.78;5095552;28;20032;-75
2022/08/27 07:33:38;;;;;;;7.25;1.90;;;;;;;-148.88;82.99;75086.69;5095538;28;20024;-76
2022/08/27 07:36:05;;;;;;;8.13;1.90;;;;;;;-148.88;83.67;75123.22;5094107;28;20024;-75
2022/08/27 07:38:31;;;;;;;6.35;1.77;;;;;;;-148.88;84.04;75125.25;5095329;28;20032;-75
2022/08/27 07:40:56;;;;;;;5.18;1.88;;;;;;;-148.88;84.07;75121.19;5095526;28;20027;-76
2022/08/27 07:46:05;;;;;;;7.85;2.20;;;;;;;-148.88;84.86;75149.63;5095335;28;20027;-75
2022/08/27 07:48:33;;;;;;;7.20;1.88;;;;;;;-148.88;85.49;75153.69;5095208;28;20019;-75
2022/08/27 07:51:00;;;;;;;5.55;1.67;;;;;;;-148.88;85.63;75165.88;5095298;28;20028;-76
2022/08/27 07:53:25;;;;;;;6.28;2.15;;;;;;;-148.88;87.98;75196.34;5095238;28;20525;-75
2022/08/27 07:55:51;;;;;;;6.28;1.90;;;;;;;-148.88;89.48;75212.59;5093750;28;20028;-75
2022/08/27 07:58:16;;;;;;;8.57;2.30;;;;;;;-148.88;90.48;75204.47;5094752;28;20055;-75
2022/08/27 08:00:43;;;;;;;6.25;2.20;;;;;;;-148.88;91.12;75212.59;5095279;28;20528;-76
2022/08/27 08:03:12;;;;;;;8.43;2.22;;;;;;;-148.88;90.98;75218.69;5095347;28;20092;-76
2022/08/27 08:05:42;;;;;;;6.72;2.30;;;;;;;-148.88;92.86;75220.72;5093766;28;20055;-76
2022/08/27 08:08:07;;;;;;;6.18;2.00;;;;;;;-148.88;94.03;75243.06;5095130;28;20023;-75
2022/08/27 08:10:38;;;;;;;7.30;2.10;;;;;;;-148.88;94.88;75273.53;5094805;28;20562;-76
2022/08/27 08:13:04;;;;;;;11.57;2.67;;;;;;;-148.88;95.99;75275.56;5094794;28;20024;-76
2022/08/27 08:15:30;;;;;;;7.22;2.70;;;;;;;-148.88;97.47;75265.41;5094614;28;20024;-75
2022/08/27 08:17:55;;;;;;;7.40;2.55;;;;;;;-148.88;97.79;75279.59;5094586;28;20387;-75
2022/08/27 08:20:20;;;;;;;9.52;2.30;;;;;;;-148.88;99.31;75301.94;5094831;28;20035;-75
2022/08/27 08:22:47;;;;;;;7.93;2.75;;;;;;;-148.88;100.00;75328.34;5094547;28;20107;-76
2022/08/27 08:25:13;;;;;;;10.50;3.33;;;;;;;-148.88;100.00;75348.66;5093263;28;20032;-75
2022/08/27 08:27:42;;;;;;;10.48;3.38;;;;;;;-148.88;100.00;75346.63;5094456;28;20020;-75
2022/08/27 08:30:09;;;;;;;9.38;3.92;;;;;;;-148.88;100.00;75371.00;5094559;28;20028;-77
2022/08/27 08:32:35;;;;;;;12.93;4.15;;;;;;;-148.88;100.00;75350.69;5094930;28;20481;-78
2022/08/27 08:35:00;;;;;;;10.82;4.07;;;;;;;-148.88;100.00;75358.81;5096501;28;20031;-78
2022/08/27 08:37:26;;;;;;;10.70;3.88;;;;;;;-148.88;100.00;75368.97;5094550;28;20028;-77
2022/08/27 08:39:52;;;;;;;11.15;4.32;;;;;;;-148.88;100.00;75348.66;5095522;28;20036;-77
2022/08/27 08:42:38;;;;;;;14.15;4.90;;;;;;;-148.88;100.00;75350.69;5094895;28;20020;-78
2022/08/27 08:45:05;;;;;;;10.98;3.92;;;;;;;-148.88;100.00;75364.91;5093584;28;20119;-77
2022/08/27 08:47:54;;;;;;;9.60;4.28;;;;;;;-148.88;100.00;75377.09;5093265;28;20023;-80
2022/08/27 08:50:27;;;;;;;11.50;4.20;;;;;;;-148.88;100.00;75368.97;5089490;28;20036;-80
2022/08/27 08:52:59;;;;;;;9.57;4.22;;;;;;;-148.88;100.00;75383.19;5100014;28;20035;-80
2022/08/27 08:55:32;;;;;;;14.65;4.28;;;;;;;-148.88;100.00;75391.31;5097735;28;20440;-78
2022/08/27 08:58:13;;;;;;;12.97;4.47;;;;;;;-148.88;100.00;75391.31;5095318;28;20020;-78
2022/08/27 09:00:42;;;;;;;9.98;4.30;;;;;;;-148.88;100.00;75381.16;5095174;28;20031;-78
2022/08/27 09:03:13;;;;;;;11.07;4.95;;;;;;;-148.88;100.00;75375.06;5096922;28;20028;-78
2022/08/27 09:05:44;;;;;;;11.35;4.53;;;;;;;-148.88;100.00;75362.88;5096371;28;20024;-78
2022/08/27 09:08:24;;;;;;;11.07;5.10;;;;;;;-148.88;100.00;75350.69;5096353;28;20028;-78
2022/08/27 09:10:57;;;;;;;11.50;4.55;;;;;;;-148.88;100.00;75352.72;5096679;28;20398;-78
2022/08/27 09:13:27;;;;;;;12.25;5.03;;;;;;;-148.88;100.00;75346.63;5096440;28;20031;-78
2022/08/27 09:15:56;;;;;;;15.00;5.32;;;;;;;-148.88;100.00;75350.69;5095240;28;20131;-78
2022/08/27 09:18:21;;;;;;;10.43;4.40;;;;;;;-148.88;100.00;75350.69;5095325;28;20031;-77
2022/08/27 09:20:50;;;;;;;8.75;4.97;;;;;;;-148.88;100.00;75354.75;5092864;28;20028;-77
2022/08/27 09:23:24;;;;;;;11.45;5.13;;;;;;;-148.88;100.00;75330.38;5092951;28;20024;-77
2022/08/27 09:25:50;;;;;;;11.38;4.75;;;;;;;-148.88;100.00;75326.31;5094339;28;20031;-77
2022/08/27 09:31:11;;;;;;;9.13;4.35;;;;;;;-148.88;100.00;75326.31;5094816;28;20081;-77
2022/08/27 09:33:36;;;;;;;10.25;4.65;;;;;;;-148.88;100.00;75324.28;5094054;28;20031;-77
2022/08/27 09:36:06;;;;;;;9.27;4.60;;;;;;;-148.88;100.00;75348.66;5094243;28;20020;-77
2022/08/27 09:38:34;;;;;;;11.27;4.75;;;;;;;-148.88;100.00;75326.31;5094662;28;20037;-77
2022/08/27 09:41:08;;;;;;;10.48;4.82;;;;;;;-148.88;100.00;75338.50;5094043;28;20499;-77
2022/08/27 09:43:35;;;;;;;8.98;4.82;;;;;;;-148.88;100.00;75334.44;5092168;28;20093;-77
2022/08/27 09:46:06;;;;;;;11.02;4.80;;;;;;;-148.88;100.00;75338.50;5092185;28;20051;-77
2022/08/27 09:48:34;;;;;;;9.52;5.30;;;;;;;-148.88;100.00;75334.44;5092343;28;20020;-77
2022/08/27 09:51:05;;;;;;;10.70;5.22;;;;;;;-148.88;100.00;75326.31;5092340;28;20110;-77
2022/08/27 09:53:46;;;;;;;11.43;5.20;;;;;;;-148.88;100.00;75338.50;5093919;28;20466;-77
2022/08/27 09:56:27;;;;;;;13.27;6.20;;;;;;;-148.88;100.00;75326.31;5092499;28;20024;-77
2022/08/27 09:59:00;;;;;;;9.43;5.57;;;;;;;-148.88;100.00;75332.41;5093072;28;20057;-77
2022/08/27 10:01:29;;;;;;;12.88;6.00;;;;;;;-148.88;100.00;75326.31;5092978;28;20498;-77
2022/08/27 10:04:11;;;;;;;13.75;5.72;;;;;;;-148.88;100.00;75320.22;5091692;28;20035;-77
2022/08/27 10:06:42;;;;;;;13.95;6.03;;;;;;;-148.88;100.00;75301.94;5093001;28;20505;-77
2022/08/27 10:09:16;;;;;;;11.27;5.45;;;;;;;-148.88;100.00;75301.94;5093211;28;20053;-77
2022/08/27 10:11:58;;;;;;;8.90;5.03;;;;;;;-148.88;100.00;75306.00;5093319;28;20024;-77
2022/08/27 10:14:39;;;;;;;8.50;5.15;;;;;;;-148.88;100.00;75295.84;5094001;28;20599;-77
2022/08/27 10:17:14;;;;;;;13.75;5.22;;;;;;;-148.88;100.00;75285.69;5093867;28;20028;-78
2022/08/27 10:20:00;;;;;;;9.20;4.72;;;;;;;-148.88;100.00;75269.47;5093893;28;20024;-77
2022/08/27 10:22:36;;;;;;;13.18;4.95;;;;;;;-148.88;100.00;75269.47;5098736;28;20028;-80
2022/08/27 10:25:33;;;;;;;11.60;5.30;;;;;;;-148.88;100.00;75261.34;5098659;28;20016;-80
2022/08/27 10:28:17;;;;;;;10.60;4.57;;;;;;;-148.88;100.00;75249.16;5100357;28;20172;-80
2022/08/27 10:31:04;;;;;;;10.52;4.75;;;;;;;-148.88;100.00;75236.97;5098586;28;20024;-80
2022/08/27 10:33:51;;;;;;;8.38;4.53;;;;;;;-148.88;100.00;75253.22;5095587;28;20024;-80
2022/08/27 10:36:32;;;;;;;10.93;5.00;;;;;;;-148.88;100.00;75249.16;5093816;28;20031;-77
2022/08/27 10:39:32;;;;;;;10.10;4.55;;;;;;;-148.88;100.00;75255.25;5093674;28;20141;-76
2022/08/27 10:42:23;;;;;;;11.43;4.35;;;;;;;-148.88;100.00;75249.16;5092261;28;20107;-78
2022/08/27 10:45:14;;;;;;;10.88;4.25;;;;;;;-148.88;100.00;75249.16;5095547;28;20028;-79
2022/08/27 10:47:48;;;;;;;10.20;4.68;;;;;;;-148.88;100.00;75241.03;5100686;28;20555;-79
2022/08/27 10:50:26;;;;;;;13.07;4.60;;;;;;;-148.88;100.00;75245.09;5106062;28;20024;-79
2022/08/27 10:53:07;;;;;;;9.18;4.40;;;;;;;-148.88;100.00;75253.22;5102609;28;20132;-79
2022/08/27 10:55:39;;;;;;;12.73;4.78;;;;;;;-148.88;100.00;75251.19;5100252;28;20413;-79
2022/08/27 10:58:27;;;;;;;10.43;4.47;;;;;;;-148.88;100.00;75243.06;5100752;28;20053;-79
2022/08/27 11:01:12;;;;;;;11.70;4.78;;;;;;;-148.88;100.00;75226.81;5101572;28;20089;-79
2022/08/27 11:03:48;;;;;;;13.23;4.47;;;;;;;-148.88;100.00;75220.72;5098335;28;20020;-79
2022/08/27 11:06:22;;;;;;;7.90;3.88;;;;;;;-148.88;100.00;75200.41;5098256;28;20028;-79
2022/08/27 11:08:56;;;;;;;10.23;4.25;;;;;;;-148.88;98.84;75198.38;5098676;28;20108;-78
2022/08/27 11:11:30;;;;;;;10.13;4.38;;;;;;;-148.88;99.56;75171.97;5096811;28;20106;-78
2022/08/27 11:13:58;;;;;;;9.38;3.97;;;;;;;-148.88;97.00;75176.03;5097018;28;20023;-78
2022/08/27 11:16:27;;;;;;;10.52;3.88;;;;;;;-148.88;96.01;75161.81;5096322;28;20027;-79
2022/08/27 11:18:59;;;;;;;9.13;5.50;;;;;;;-148.88;97.73;75131.34;5097676;28;20027;-78
2022/08/27 11:21:44;;;;;;;9.15;4.68;;;;;;;-148.88;93.60;75133.38;5098254;28;20031;-79
2022/08/27 11:24:59;;;;;;;10.00;3.78;;;;;;;-148.88;93.63;75123.22;5097587;28;20486;-79
2022/08/27 11:27:28;;;;;;;10.23;3.67;;;;;;;-148.88;92.01;75123.22;5090129;28;20032;-78
2022/08/27 11:30:44;;;;;;;9.85;3.40;;;;;;;-148.88;91.61;75111.03;5097353;28;20020;-78